Time;durP1;ratioP1;P1;durP2;ratioP2;P2;SDS_P1;SDS_P2;PMS_P1;PMS_P2;Temp;Humidity;BMP_temperature;BMP_pressure;BME280_temperature;BME280_humidity;BME280_pressure;Samples;Min_cycle;Max_cycle;Signal;HPM_P1;HPM_P2
2023/04/10 00:02:16;;;;;;;20.83;14.32;;;6.80;99.90;;;;;;5055535;28;20159;-66
2023/04/10 00:04:42;;;;;;;21.80;14.40;;;6.70;99.90;;;;;;5056144;28;20025;-66
2023/04/10 00:07:07;;;;;;;19.20;14.30;;;6.80;99.90;;;;;;5055426;28;20036;-66
2023/04/10 00:09:33;;;;;;;21.77;14.00;;;6.70;99.90;;;;;;5056050;28;20467;-65
2023/04/10 00:11:59;;;;;;;18.73;14.02;;;6.70;99.90;;;;;;5055395;28;20511;-67
2023/04/10 00:14:25;;;;;;;17.85;13.27;;;6.70;99.90;;;;;;5055655;28;20047;-66
2023/04/10 00:16:51;;;;;;;19.35;13.48;;;6.70;99.90;;;;;;5055365;28;20490;-65
2023/04/10 00:19:16;;;;;;;23.65;14.25;;;6.70;99.90;;;;;;5055151;28;20381;-66
2023/04/10 00:21:42;;;;;;;22.98;13.60;;;6.60;99.90;;;;;;5055386;28;20029;-66
2023/04/10 00:24:08;;;;;;;18.77;13.60;;;6.60;99.90;;;;;;5056727;28;20036;-66
2023/04/10 00:26:37;;;;;;;18.65;13.35;;;6.70;99.90;;;;;;5056147;28;20033;-65
2023/04/10 00:29:02;;;;;;;19.95;13.40;;;6.70;99.90;;;;;;5054827;28;20037;-66
2023/04/10 00:31:29;;;;;;;18.80;14.00;;;6.70;99.90;;;;;;5055001;28;20033;-65
2023/04/10 00:33:54;;;;;;;19.63;14.20;;;6.70;99.90;;;;;;5055302;28;20025;-65
2023/04/10 00:36:20;;;;;;;20.88;14.85;;;6.70;99.90;;;;;;5053597;28;20040;-65
2023/04/10 00:38:48;;;;;;;17.83;13.63;;;6.70;99.90;;;;;;5055278;28;20036;-65
2023/04/10 00:41:14;;;;;;;19.05;13.55;;;6.70;99.90;;;;;;5054731;28;20116;-66
2023/04/10 00:43:40;;;;;;;20.30;13.77;;;6.70;99.90;;;;;;5055032;28;20052;-65
2023/04/10 00:46:06;;;;;;;18.48;13.40;;;6.70;99.90;;;;;;5054671;28;20087;-67
2023/04/10 00:48:32;;;;;;;19.30;14.25;;;6.60;99.90;;;;;;5054794;28;20036;-67
2023/04/10 00:50:59;;;;;;;19.27;13.68;;;6.70;99.90;;;;;;5051823;28;20024;-66
2023/04/10 00:53:25;;;;;;;20.15;13.90;;;6.70;99.90;;;;;;5054993;28;20028;-67
2023/04/10 00:55:51;;;;;;;19.23;14.15;;;6.70;99.90;;;;;;5055092;28;20055;-66
2023/04/10 00:58:17;;;;;;;21.85;14.43;;;6.60;99.90;;;;;;5054806;28;20108;-66
2023/04/10 01:00:43;;;;;;;22.33;14.80;;;6.70;99.90;;;;;;5054918;28;20120;-66
2023/04/10 01:03:10;;;;;;;20.20;14.88;;;6.70;99.90;;;;;;5054765;28;20033;-67
2023/04/10 01:05:47;;;;;;;19.83;13.65;;;6.70;99.90;;;;;;5054763;28;20382;-66
2023/04/10 01:08:44;;;;;;;18.23;13.23;;;6.70;99.90;;;;;;5054503;28;20036;-66
2023/04/10 01:11:32;;;;;;;17.13;12.95;;;6.70;99.90;;;;;;5054418;28;20036;-66
2023/04/10 01:14:09;;;;;;;20.65;13.52;;;6.70;99.90;;;;;;5054524;28;20025;-66
2023/04/10 01:16:52;;;;;;;21.02;13.77;;;6.70;99.90;;;;;;5054386;28;20021;-67
2023/04/10 01:19:31;;;;;;;22.25;14.00;;;6.70;99.90;;;;;;5054122;28;20032;-66
2023/04/10 01:21:59;;;;;;;21.95;14.15;;;6.70;99.90;;;;;;5054658;28;20079;-66
2023/04/10 01:24:57;;;;;;;20.35;14.15;;;6.70;99.90;;;;;;5054482;28;20025;-66
2023/04/10 01:27:45;;;;;;;16.88;12.48;;;6.70;99.90;;;;;;5044765;28;20374;-66
2023/04/10 01:30:15;;;;;;;19.75;13.13;;;6.70;99.90;;;;;;5054236;28;20025;-67
2023/04/10 01:32:43;;;;;;;18.17;12.98;;;6.70;99.90;;;;;;5054787;28;20466;-66
2023/04/10 01:35:10;;;;;;;17.38;13.10;;;6.70;99.90;;;;;;5053869;28;20473;-66
2023/04/10 01:37:41;;;;;;;17.63;12.73;;;6.70;99.90;;;;;;5054134;28;20029;-67
2023/04/10 01:40:10;;;;;;;17.77;12.82;;;6.70;99.90;;;;;;5053905;28;20365;-67
2023/04/10 01:42:44;;;;;;;19.02;13.35;;;6.70;99.90;;;;;;5053812;28;20060;-67
2023/04/10 01:45:17;;;;;;;17.55;12.45;;;6.70;99.90;;;;;;5053815;28;20048;-67
2023/04/10 01:47:43;;;;;;;19.27;13.70;;;6.70;99.90;;;;;;5054371;28;20035;-66
2023/04/10 01:50:10;;;;;;;18.15;12.95;;;6.70;99.90;;;;;;5053584;28;20029;-66
2023/04/10 01:52:37;;;;;;;17.50;12.93;;;6.70;99.90;;;;;;5054022;28;20025;-67
2023/04/10 01:55:05;;;;;;;19.67;13.68;;;6.70;99.90;;;;;;5053270;28;20489;-69
2023/04/10 01:57:31;;;;;;;17.83;12.80;;;6.70;99.90;;;;;;5053600;28;20036;-66
2023/04/10 01:59:57;;;;;;;18.73;13.18;;;6.70;99.90;;;;;;5053742;28;20025;-66
2023/04/10 02:02:23;;;;;;;18.10;13.05;;;6.70;99.90;;;;;;5053404;28;20074;-66
2023/04/10 02:04:51;;;;;;;17.85;12.82;;;6.70;99.90;;;;;;5053662;28;20112;-66
2023/04/10 02:07:26;;;;;;;17.50;12.95;;;6.70;99.90;;;;;;5052894;28;20091;-67
2023/04/10 02:10:03;;;;;;;17.98;13.30;;;6.70;99.90;;;;;;5053717;28;20029;-66
2023/04/10 02:12:47;;;;;;;19.38;12.88;;;6.70;99.90;;;;;;5052570;28;20025;-67
2023/04/10 02:15:15;;;;;;;19.58;13.40;;;6.70;99.90;;;;;;5053223;28;20116;-66
2023/04/10 02:17:41;;;;;;;18.40;12.90;;;6.70;99.90;;;;;;5053216;28;20109;-66
2023/04/10 02:20:08;;;;;;;17.02;12.68;;;6.70;99.90;;;;;;5053041;28;20437;-66
2023/04/10 02:22:34;;;;;;;18.88;12.95;;;6.70;99.90;;;;;;5053304;28;20473;-66
2023/04/10 02:25:02;;;;;;;18.27;13.07;;;6.70;99.90;;;;;;5053314;28;20036;-66
2023/04/10 02:27:35;;;;;;;19.10;13.73;;;6.70;99.90;;;;;;5052543;28;20492;-66
2023/04/10 02:30:02;;;;;;;18.65;13.48;;;6.70;99.90;;;;;;5053042;28;20059;-66
2023/04/10 02:32:28;;;;;;;16.55;12.00;;;6.60;99.90;;;;;;5052891;28;20444;-66
2023/04/10 02:34:55;;;;;;;18.25;13.07;;;6.70;99.90;;;;;;5053290;28;20106;-66
2023/04/10 02:37:21;;;;;;;17.08;12.60;;;6.70;99.90;;;;;;5052732;28;20458;-66
2023/04/10 02:39:47;;;;;;;17.65;13.13;;;6.70;99.90;;;;;;5052961;28;20029;-66
2023/04/10 02:42:12;;;;;;;17.73;13.27;;;6.60;99.90;;;;;;5052527;28;20029;-66
2023/04/10 02:44:38;;;;;;;18.58;13.27;;;6.60;99.90;;;;;;5052552;28;20401;-66
2023/04/10 02:47:07;;;;;;;18.55;13.30;;;6.60;99.90;;;;;;5052820;28;20032;-66
2023/04/10 02:49:33;;;;;;;17.00;12.95;;;6.60;99.90;;;;;;5053083;28;20098;-66
2023/04/10 02:52:00;;;;;;;20.00;13.15;;;6.60;99.90;;;;;;5052566;28;20525;-66
2023/04/10 02:54:26;;;;;;;20.05;13.45;;;6.60;99.90;;;;;;5051868;28;20025;-66
2023/04/10 02:56:51;;;;;;;18.77;13.55;;;6.60;99.90;;;;;;5052542;28;20401;-66
2023/04/10 02:59:17;;;;;;;17.35;12.68;;;6.60;99.90;;;;;;5052600;28;20029;-66
2023/04/10 03:01:44;;;;;;;20.63;12.68;;;6.60;99.90;;;;;;5053220;28;20025;-66
2023/04/10 03:04:10;;;;;;;16.13;12.25;;;6.60;99.90;;;;;;5052694;28;20021;-66
2023/04/10 03:06:35;;;;;;;19.55;14.05;;;6.60;99.90;;;;;;5052954;28;20078;-66
2023/04/10 03:09:01;;;;;;;20.55;14.57;;;6.50;99.90;;;;;;5052958;28;20029;-66
2023/04/10 03:11:26;;;;;;;21.35;13.82;;;6.50;99.90;;;;;;5052281;28;20475;-66
2023/04/10 03:13:52;;;;;;;18.27;13.32;;;6.50;99.90;;;;;;5052508;28;20032;-66
2023/04/10 03:16:18;;;;;;;20.35;14.23;;;6.50;99.90;;;;;;5052361;28;20032;-66
2023/04/10 03:18:45;;;;;;;19.45;13.93;;;6.50;99.90;;;;;;5053109;28;20151;-66
2023/04/10 03:21:11;;;;;;;19.77;13.35;;;6.50;99.90;;;;;;5052387;28;20075;-66
2023/04/10 03:23:36;;;;;;;17.52;13.15;;;6.50;99.90;;;;;;5052793;28;20029;-66
2023/04/10 03:26:03;;;;;;;19.55;14.65;;;6.50;99.90;;;;;;5052227;28;20033;-66
2023/04/10 03:28:29;;;;;;;23.73;15.23;;;6.50;99.90;;;;;;5052067;28;20440;-66
2023/04/10 03:30:56;;;;;;;21.20;14.90;;;6.50;99.90;;;;;;5052391;28;20443;-66
2023/04/10 03:33:21;;;;;;;21.45;14.20;;;6.40;99.90;;;;;;5052055;28;20175;-66
2023/04/10 03:35:47;;;;;;;20.00;14.45;;;6.50;99.90;;;;;;5052533;28;20025;-66
2023/04/10 03:38:13;;;;;;;20.52;14.30;;;6.40;99.90;;;;;;5051809;28;20030;-66
2023/04/10 03:40:39;;;;;;;20.15;14.98;;;6.40;99.90;;;;;;5052429;28;20029;-66
2023/04/10 03:43:05;;;;;;;19.42;13.77;;;6.40;99.90;;;;;;5052288;28;20032;-66
2023/04/10 03:45:30;;;;;;;20.55;14.07;;;6.40;99.90;;;;;;5051837;28;20033;-66
2023/04/10 03:47:57;;;;;;;20.08;14.15;;;6.40;99.90;;;;;;5052306;28;20037;-66
2023/04/10 03:50:23;;;;;;;19.05;13.23;;;6.40;99.90;;;;;;5051950;28;20064;-65
2023/04/10 03:52:49;;;;;;;21.38;14.32;;;6.40;99.90;;;;;;5052143;28;20033;-65
2023/04/10 03:55:18;;;;;;;17.67;12.80;;;6.30;99.90;;;;;;5051347;28;20072;-67
2023/04/10 03:57:47;;;;;;;17.95;13.05;;;6.40;99.90;;;;;;5052604;28;20056;-67
2023/04/10 04:00:14;;;;;;;19.35;13.63;;;6.40;99.90;;;;;;5052102;28;20031;-65
2023/04/10 04:02:40;;;;;;;18.17;12.90;;;6.40;99.90;;;;;;5050899;28;20025;-65
2023/04/10 04:05:06;;;;;;;18.88;13.23;;;6.30;99.90;;;;;;5053079;28;20319;-65
2023/04/10 04:07:32;;;;;;;17.83;12.68;;;6.30;99.90;;;;;;5055465;28;20044;-65
2023/04/10 04:09:58;;;;;;;18.23;13.80;;;6.30;99.90;;;;;;5055829;28;20056;-65
2023/04/10 04:12:24;;;;;;;17.52;12.90;;;6.30;99.90;;;;;;5055294;28;20060;-66
2023/04/10 04:14:50;;;;;;;17.90;12.45;;;6.30;99.90;;;;;;5055705;28;20151;-65
2023/04/10 04:17:15;;;;;;;19.23;13.40;;;6.30;99.90;;;;;;5055268;28;20029;-65
2023/04/10 04:19:41;;;;;;;17.10;12.73;;;6.30;99.90;;;;;;5055525;28;20512;-65
2023/04/10 04:22:07;;;;;;;17.90;13.13;;;6.20;99.90;;;;;;5055545;28;20123;-66
2023/04/10 04:24:32;;;;;;;16.30;12.27;;;6.30;99.90;;;;;;5055460;28;20562;-66
2023/04/10 04:26:58;;;;;;;16.95;12.48;;;6.30;99.90;;;;;;5055442;28;20058;-66
2023/04/10 04:29:24;;;;;;;17.13;11.77;;;6.20;99.90;;;;;;5055391;28;20507;-67
2023/04/10 04:31:49;;;;;;;18.30;12.32;;;6.20;99.90;;;;;;5055394;28;20109;-66
2023/04/10 04:34:15;;;;;;;16.92;12.25;;;6.20;99.90;;;;;;5055347;28;20025;-67
2023/04/10 04:36:41;;;;;;;16.88;12.15;;;6.20;99.90;;;;;;5055903;28;20131;-66
2023/04/10 04:39:07;;;;;;;16.88;12.30;;;6.20;99.90;;;;;;5055259;28;20025;-67
2023/04/10 04:41:32;;;;;;;16.75;12.45;;;6.20;99.90;;;;;;5054888;28;20028;-67
2023/04/10 04:44:00;;;;;;;17.95;12.35;;;6.20;99.90;;;;;;5054106;28;20052;-67
2023/04/10 04:46:26;;;;;;;16.25;11.93;;;6.20;99.90;;;;;;5054446;28;20048;-67
2023/04/10 04:48:51;;;;;;;18.85;13.20;;;6.20;99.90;;;;;;5054809;28;20041;-66
2023/04/10 04:51:17;;;;;;;18.15;11.65;;;6.20;99.90;;;;;;5054600;28;20461;-66
2023/04/10 04:53:43;;;;;;;17.33;12.10;;;6.20;99.90;;;;;;5054518;28;20021;-66
2023/04/10 04:56:08;;;;;;;17.80;12.13;;;6.20;99.90;;;;;;5054804;28;20037;-66
2023/04/10 04:58:34;;;;;;;16.08;11.85;;;6.20;99.90;;;;;;5054163;28;20021;-67
2023/04/10 05:01:00;;;;;;;18.08;12.57;;;6.20;99.90;;;;;;5054858;28;20052;-66
2023/04/10 05:03:27;;;;;;;19.63;12.80;;;6.20;99.90;;;;;;5054413;28;20067;-67
2023/04/10 05:05:53;;;;;;;17.92;13.02;;;6.20;99.90;;;;;;5053285;28;20385;-67
2023/04/10 05:08:19;;;;;;;17.90;12.52;;;6.30;99.90;;;;;;5054406;28;20033;-67
2023/04/10 05:10:45;;;;;;;16.42;12.07;;;6.30;99.90;;;;;;5054681;28;20449;-66
2023/04/10 05:13:11;;;;;;;16.15;11.82;;;6.30;99.90;;;;;;5054701;28;20087;-66
2023/04/10 05:15:38;;;;;;;16.63;11.50;;;6.30;99.90;;;;;;5053774;28;20048;-67
2023/04/10 05:18:03;;;;;;;14.70;11.00;;;6.40;99.90;;;;;;5054393;28;20589;-66
2023/04/10 05:20:30;;;;;;;17.13;11.80;;;6.40;99.90;;;;;;5054399;28;20116;-66
2023/04/10 05:22:57;;;;;;;18.95;13.13;;;6.50;99.90;;;;;;5054486;28;20105;-66
2023/04/10 05:25:22;;;;;;;18.75;12.93;;;6.50;99.90;;;;;;5053912;28;20021;-66
2023/04/10 05:27:48;;;;;;;16.65;12.48;;;6.60;99.90;;;;;;5054486;28;20036;-67
2023/04/10 05:30:14;;;;;;;18.35;13.07;;;6.60;99.90;;;;;;5054498;28;20393;-67
2023/04/10 05:32:39;;;;;;;18.25;12.73;;;6.70;99.90;;;;;;5053953;28;20086;-66
2023/04/10 05:35:06;;;;;;;15.23;11.88;;;6.70;99.90;;;;;;5054535;28;20025;-66
2023/04/10 05:37:31;;;;;;;16.23;11.60;;;6.70;99.90;;;;;;5053697;28;20029;-67
2023/04/10 05:39:58;;;;;;;16.15;12.07;;;6.80;99.90;;;;;;5054235;28;20473;-66
2023/04/10 05:42:24;;;;;;;17.25;12.48;;;6.90;99.90;;;;;;5053682;28;20495;-66
2023/04/10 05:44:51;;;;;;;18.27;13.32;;;6.90;99.90;;;;;;5053688;28;20053;-66
2023/04/10 05:47:17;;;;;;;16.08;12.35;;;6.90;99.90;;;;;;5054011;28;20028;-67
2023/04/10 05:49:43;;;;;;;17.48;12.80;;;7.00;99.90;;;;;;5053331;28;20112;-66
2023/04/10 05:52:08;;;;;;;16.13;12.65;;;7.00;99.90;;;;;;5053943;28;20377;-67
2023/04/10 05:54:34;;;;;;;20.48;12.93;;;7.10;99.90;;;;;;5053426;28;20045;-66
2023/04/10 05:57:00;;;;;;;17.25;12.57;;;7.20;99.90;;;;;;5053874;28;20366;-65
2023/04/10 05:59:26;;;;;;;18.02;13.30;;;7.20;99.90;;;;;;5053136;28;20032;-66
2023/04/10 06:01:52;;;;;;;18.58;13.15;;;7.30;99.90;;;;;;5053784;28;20381;-66
2023/04/10 06:04:17;;;;;;;17.83;12.60;;;7.40;99.90;;;;;;5053504;28;20477;-66
2023/04/10 06:06:43;;;;;;;17.48;12.85;;;7.50;99.90;;;;;;5053194;28;20087;-66
2023/04/10 06:09:09;;;;;;;17.30;13.30;;;7.60;99.90;;;;;;5053314;28;20040;-66
2023/04/10 06:11:34;;;;;;;17.90;12.98;;;7.80;99.90;;;;;;5053188;28;20090;-66
2023/04/10 06:14:00;;;;;;;20.42;14.07;;;7.90;99.90;;;;;;5053583;28;20154;-66
2023/04/10 06:16:26;;;;;;;18.33;13.52;;;8.00;99.90;;;;;;5052791;28;20147;-66
2023/04/10 06:18:52;;;;;;;16.80;12.70;;;8.10;99.90;;;;;;5053302;28;20025;-66
2023/04/10 06:21:18;;;;;;;16.95;13.27;;;8.30;99.90;;;;;;5053282;28;20039;-66
2023/04/10 06:23:44;;;;;;;20.92;15.00;;;8.40;99.90;;;;;;5052974;28;20051;-66
2023/04/10 06:26:10;;;;;;;17.52;13.50;;;8.60;99.90;;;;;;5053202;28;20033;-67
2023/04/10 06:28:36;;;;;;;18.55;13.52;;;8.80;99.90;;;;;;5051675;28;20036;-66
2023/04/10 06:31:03;;;;;;;19.83;14.40;;;9.00;99.90;;;;;;5053298;28;20351;-66
2023/04/10 06:33:29;;;;;;;16.38;13.65;;;9.20;99.90;;;;;;5052730;28;20029;-66
2023/04/10 06:35:54;;;;;;;19.00;13.75;;;9.40;99.90;;;;;;5052849;28;20086;-65
2023/04/10 06:38:20;;;;;;;17.67;12.73;;;9.70;98.70;;;;;;5053074;28;20039;-65
2023/04/10 06:40:46;;;;;;;17.98;13.82;;;10.00;98.50;;;;;;5052668;28;20025;-65
2023/04/10 06:43:11;;;;;;;18.80;14.00;;;10.30;97.50;;;;;;5051661;28;20028;-67
2023/04/10 06:45:37;;;;;;;18.60;14.02;;;10.50;94.90;;;;;;5052664;28;20033;-66
2023/04/10 06:48:03;;;;;;;17.25;13.05;;;10.70;94.70;;;;;;5053075;28;20075;-66
2023/04/10 06:50:29;;;;;;;18.63;14.48;;;10.80;93.40;;;;;;5052543;28;20108;-65
2023/04/10 06:52:58;;;;;;;21.90;14.88;;;11.00;93.60;;;;;;5053019;28;20433;-65
2023/04/10 06:55:25;;;;;;;19.17;14.45;;;11.10;91.90;;;;;;5052141;28;20037;-69
2023/04/10 06:57:50;;;;;;;21.05;15.10;;;11.10;91.30;;;;;;5051419;28;20040;-65
2023/04/10 07:00:18;;;;;;;18.90;14.45;;;11.10;90.30;;;;;;5053018;28;20454;-65
2023/04/10 07:02:44;;;;;;;19.52;14.77;;;11.20;90.00;;;;;;5052565;28;20338;-66
2023/04/10 07:05:10;;;;;;;20.50;14.75;;;11.30;90.00;;;;;;5051582;28;20107;-65
2023/04/10 07:07:36;;;;;;;19.17;14.75;;;11.40;89.40;;;;;;5052475;28;20084;-65
2023/04/10 07:10:02;;;;;;;19.65;14.50;;;11.90;89.00;;;;;;5053568;28;20417;-65
2023/04/10 07:12:28;;;;;;;17.33;13.48;;;12.70;85.30;;;;;;5054479;28;20412;-66
2023/04/10 07:14:53;;;;;;;17.50;14.18;;;13.20;82.40;;;;;;5053979;28;20391;-65
2023/04/10 07:17:19;;;;;;;16.45;13.20;;;13.90;79.40;;;;;;5052805;28;20025;-65
2023/04/10 07:19:45;;;;;;;17.70;13.13;;;14.60;77.10;;;;;;5052246;28;20435;-65
2023/04/10 07:22:11;;;;;;;21.50;14.68;;;15.30;74.00;;;;;;5052639;28;20052;-65
2023/04/10 07:24:37;;;;;;;17.55;14.35;;;16.10;68.20;;;;;;5052067;28;20044;-65
2023/04/10 07:27:02;;;;;;;15.95;12.40;;;16.70;65.80;;;;;;5052282;28;20025;-65
2023/04/10 07:29:30;;;;;;;16.50;14.25;;;17.30;63.30;;;;;;5052066;28;20029;-66
2023/04/10 07:31:55;;;;;;;16.73;14.32;;;17.80;60.20;;;;;;5052350;28;20457;-65
2023/04/10 07:34:21;;;;;;;15.55;13.18;;;18.10;59.70;;;;;;5052500;28;20071;-65
2023/04/10 07:36:47;;;;;;;16.55;14.23;;;18.20;58.10;;;;;;5051763;28;20036;-65
2023/04/10 07:39:12;;;;;;;15.95;14.05;;;17.50;58.00;;;;;;5053059;28;20025;-66
2023/04/10 07:41:39;;;;;;;15.00;13.15;;;16.80;59.40;;;;;;5056227;28;20092;-66
2023/04/10 07:44:04;;;;;;;15.50;13.82;;;17.10;58.70;;;;;;5056596;28;20056;-67
2023/04/10 07:46:30;;;;;;;18.20;14.60;;;17.50;59.00;;;;;;5055856;28;20033;-67
2023/04/10 07:48:56;;;;;;;18.45;15.13;;;17.40;57.40;;;;;;5056247;28;20481;-66
2023/04/10 07:51:22;;;;;;;17.88;14.60;;;17.40;56.60;;;;;;5056106;28;20035;-67
2023/04/10 07:53:48;;;;;;;17.88;14.73;;;17.80;57.20;;;;;;5055781;28;20083;-66
2023/04/10 07:56:19;;;;;;;15.18;13.57;;;17.40;57.40;;;;;;5056160;28;20033;-66
2023/04/10 07:58:45;;;;;;;;;;;17.80;57.80;;;;;;5056102;28;20429;-66
2023/04/10 08:01:11;;;;;;;23.60;15.60;;;17.50;56.20;;;;;;5055962;28;19913;-66
2023/04/10 08:03:41;;;;;;;18.38;14.90;;;17.00;57.50;;;;;;5055662;28;20041;-66
2023/04/10 08:06:11;;;;;;;17.97;15.10;;;16.50;58.50;;;;;;5055917;28;20025;-66
2023/04/10 08:08:38;;;;;;;19.20;15.63;;;16.30;58.90;;;;;;5054961;28;20040;-66
2023/04/10 08:11:07;;;;;;;18.17;15.35;;;17.00;60.30;;;;;;5055869;28;20032;-66
2023/04/10 08:13:33;;;;;;;17.23;14.75;;;17.60;56.90;;;;;;5055397;28;20025;-66
2023/04/10 08:15:59;;;;;;;18.27;14.38;;;18.30;56.60;;;;;;5055734;28;20109;-66
2023/04/10 08:18:24;;;;;;;19.10;15.35;;;18.30;55.30;;;;;;5055934;28;20029;-66
2023/04/10 08:20:50;;;;;;;20.20;16.63;;;18.30;54.00;;;;;;5055204;28;20029;-67
2023/04/10 08:23:16;;;;;;;18.88;15.63;;;18.60;53.90;;;;;;5055345;28;20385;-65
2023/04/10 08:25:41;;;;;;;23.48;16.35;;;19.10;53.30;;;;;;5055040;28;20122;-66
2023/04/10 08:28:07;;;;;;;19.63;15.73;;;19.00;52.70;;;;;;5055525;28;20388;-66
2023/04/10 08:30:32;;;;;;;19.67;15.82;;;19.40;53.40;;;;;;5055091;28;20446;-67
2023/04/10 08:32:58;;;;;;;19.65;16.08;;;19.30;52.70;;;;;;5055248;28;20104;-66
2023/04/10 08:35:24;;;;;;;20.50;16.90;;;19.00;52.50;;;;;;5055376;28;20036;-66
2023/04/10 08:37:49;;;;;;;20.08;16.13;;;18.20;53.00;;;;;;5054658;28;20444;-66
2023/04/10 08:40:15;;;;;;;21.45;17.33;;;17.80;54.80;;;;;;5055350;28;20025;-66
2023/04/10 08:42:40;;;;;;;23.17;18.77;;;18.50;54.50;;;;;;5053435;28;20028;-66
2023/04/10 08:45:07;;;;;;;22.65;18.35;;;18.60;53.50;;;;;;5055375;28;20055;-65
2023/04/10 08:47:37;;;;;;;25.35;19.13;;;19.00;53.00;;;;;;5054376;28;20037;-73
2023/04/10 08:50:06;;;;;;;21.50;17.45;;;19.00;53.90;;;;;;5055864;28;20044;-66
2023/04/10 08:52:35;;;;;;;24.83;19.02;;;18.70;53.90;;;;;;5054735;28;20055;-66
2023/04/10 08:55:06;;;;;;;23.00;18.70;;;18.10;54.50;;;;;;5055416;28;20029;-66
2023/04/10 08:57:32;;;;;;;22.83;17.95;;;17.90;56.00;;;;;;5055115;28;20039;-66
2023/04/10 08:59:58;;;;;;;20.10;17.38;;;17.80;56.80;;;;;;5054691;28;20096;-66
2023/04/10 09:02:24;;;;;;;23.33;18.13;;;17.70;57.60;;;;;;5054139;28;20108;-65
2023/04/10 09:04:53;;;;;;;21.83;18.10;;;17.80;56.60;;;;;;5054398;28;20032;-67
2023/04/10 09:07:21;;;;;;;21.80;17.50;;;17.60;56.70;;;;;;5053444;28;20507;-65
2023/04/10 09:09:47;;;;;;;22.92;18.20;;;17.30;56.30;;;;;;5054378;28;20033;-66
2023/04/10 09:12:14;;;;;;;22.85;18.88;;;17.20;58.00;;;;;;5054349;28;20021;-66
2023/04/10 09:14:41;;;;;;;24.13;18.67;;;17.00;57.90;;;;;;5053978;28;20036;-67
2023/04/10 09:17:13;;;;;;;25.10;19.48;;;16.90;58.50;;;;;;5054519;28;20021;-66
2023/04/10 09:19:40;;;;;;;24.75;19.33;;;16.70;58.60;;;;;;5054077;28;20132;-66
2023/04/10 09:22:05;;;;;;;27.45;20.58;;;16.40;59.00;;;;;;5054484;28;20025;-67
2023/04/10 09:24:36;;;;;;;23.42;19.05;;;16.30;59.50;;;;;;5054405;28;20028;-67
2023/04/10 09:27:02;;;;;;;23.90;19.05;;;16.00;60.00;;;;;;5054484;28;20036;-66
2023/04/10 09:29:50;;;;;;;25.90;19.70;;;15.80;61.40;;;;;;5053079;28;20457;-66
2023/04/10 09:32:45;;;;;;;24.40;19.92;;;15.60;62.80;;;;;;5054323;28;20032;-66
2023/04/10 09:35:13;;;;;;;24.75;20.17;;;15.60;63.00;;;;;;5045351;28;20040;-66
2023/04/10 09:37:41;;;;;;;24.73;20.33;;;15.40;63.30;;;;;;5053768;28;20028;-66
2023/04/10 09:40:19;;;;;;;23.85;19.20;;;15.30;62.20;;;;;;5054132;28;20047;-66
2023/04/10 09:42:45;;;;;;;25.92;20.17;;;15.30;62.90;;;;;;5053651;28;20032;-66
2023/04/10 09:45:11;;;;;;;24.67;19.95;;;15.40;63.80;;;;;;5053475;28;20045;-66
2023/04/10 09:47:37;;;;;;;24.95;20.00;;;15.30;62.70;;;;;;5053651;28;20122;-73
2023/04/10 09:50:03;;;;;;;26.27;20.65;;;15.40;62.10;;;;;;5053621;28;20017;-66
2023/04/10 09:52:34;;;;;;;22.63;19.00;;;15.40;62.80;;;;;;5053765;28;20032;-65
2023/04/10 09:55:09;;;;;;;23.42;20.08;;;15.30;62.30;;;;;;5053479;28;20029;-66
2023/04/10 09:57:35;;;;;;;22.80;19.35;;;15.40;63.20;;;;;;5053816;28;20082;-66
2023/04/10 10:00:05;;;;;;;24.95;21.05;;;15.30;63.40;;;;;;5053225;28;20025;-66
2023/04/10 10:02:35;;;;;;;24.15;20.48;;;15.40;63.30;;;;;;5053253;28;20377;-67
2023/04/10 10:05:04;;;;;;;27.08;20.25;;;15.30;62.00;;;;;;5052911;28;20029;-66
2023/04/10 10:07:30;;;;;;;26.58;20.40;;;15.30;63.10;;;;;;5053405;28;20024;-66
2023/04/10 10:09:57;;;;;;;23.40;19.15;;;15.20;63.80;;;;;;5052631;28;20034;-66
2023/04/10 10:12:42;;;;;;;24.38;19.10;;;15.20;64.40;;;;;;5052967;28;20021;-67
2023/04/10 10:15:17;;;;;;;23.80;18.70;;;15.20;63.00;;;;;;5053285;28;20078;-66
2023/04/10 10:17:45;;;;;;;26.92;19.67;;;15.30;62.90;;;;;;5052856;28;20029;-66
2023/04/10 10:20:16;;;;;;;24.45;19.55;;;15.30;62.80;;;;;;5053199;28;20025;-66
2023/04/10 10:22:43;;;;;;;24.02;19.48;;;15.40;62.90;;;;;;5052780;28;20432;-66
2023/04/10 10:25:09;;;;;;;23.55;18.17;;;15.50;63.10;;;;;;5053035;28;20037;-67
2023/04/10 10:27:40;;;;;;;24.98;19.75;;;15.50;62.00;;;;;;5053200;28;20466;-66
2023/04/10 10:30:08;;;;;;;23.38;19.73;;;15.50;61.40;;;;;;5053632;28;20032;-65
2023/04/10 10:32:35;;;;;;;25.35;19.58;;;15.50;61.50;;;;;;5052848;28;20029;-66
2023/04/10 10:35:02;;;;;;;26.25;21.05;;;15.50;61.10;;;;;;5052684;28;20041;-66
2023/04/10 10:37:29;;;;;;;28.55;21.27;;;15.60;61.90;;;;;;5053004;28;20033;-66
2023/04/10 10:40:19;;;;;;;25.42;20.05;;;15.70;61.50;;;;;;5052666;28;20029;-67
2023/04/10 10:42:57;;;;;;;26.00;19.60;;;15.80;61.30;;;;;;5052755;28;20520;-66
2023/04/10 10:45:30;;;;;;;25.02;20.20;;;15.90;60.40;;;;;;5053246;28;20469;-66
2023/04/10 10:47:55;;;;;;;23.55;19.08;;;16.00;60.30;;;;;;5052319;28;20033;-66
2023/04/10 10:50:22;;;;;;;25.13;21.55;;;16.00;60.50;;;;;;5052640;28;20036;-67
2023/04/10 10:52:51;;;;;;;26.17;20.42;;;16.10;60.00;;;;;;5052465;28;20029;-66
2023/04/10 10:55:35;;;;;;;23.00;19.25;;;16.10;59.70;;;;;;5052876;28;20389;-66
2023/04/10 10:58:08;;;;;;;22.63;18.30;;;16.20;60.50;;;;;;5052147;28;20052;-66
2023/04/10 11:00:49;;;;;;;23.52;19.02;;;16.20;57.60;;;;;;5052817;28;20040;-66
2023/04/10 11:03:14;;;;;;;23.15;19.80;;;16.10;57.90;;;;;;5052722;28;20104;-66
2023/04/10 11:05:53;;;;;;;24.20;19.20;;;16.20;59.10;;;;;;5052758;28;20175;-66
2023/04/10 11:08:42;;;;;;;24.80;18.85;;;16.20;59.20;;;;;;5052954;28;20037;-66
2023/04/10 11:11:08;;;;;;;25.08;19.13;;;16.20;57.80;;;;;;5052802;28;20021;-66
2023/04/10 11:13:35;;;;;;;23.38;19.20;;;16.10;57.70;;;;;;5053568;28;20465;-67
2023/04/10 11:16:03;;;;;;;21.08;18.75;;;16.10;58.50;;;;;;5058853;28;20100;-67
2023/04/10 11:18:46;;;;;;;25.63;20.75;;;16.20;58.80;;;;;;5059319;28;20033;-66
2023/04/10 11:21:19;;;;;;;26.13;20.17;;;16.30;59.10;;;;;;5059310;28;20032;-66
2023/04/10 11:23:57;;;;;;;26.67;20.25;;;16.40;59.20;;;;;;5058715;28;20481;-67
2023/04/10 11:26:34;;;;;;;24.45;18.83;;;16.30;58.10;;;;;;5059272;28;20419;-66
2023/04/10 11:29:21;;;;;;;26.55;20.35;;;16.30;58.70;;;;;;5058645;28;20040;-66
2023/04/10 11:31:54;;;;;;;23.30;18.40;;;16.30;57.70;;;;;;5051143;28;20127;-66
2023/04/10 11:34:20;;;;;;;24.50;19.77;;;16.40;59.00;;;;;;5057870;28;20029;-66
2023/04/10 11:36:46;;;;;;;21.17;17.52;;;16.40;57.70;;;;;;5058717;28;20036;-66
2023/04/10 11:39:16;;;;;;;23.77;19.23;;;16.30;57.00;;;;;;5058985;28;20032;-66
2023/04/10 11:41:47;;;;;;;22.00;18.67;;;16.30;57.50;;;;;;5059059;28;20029;-66
2023/04/10 11:44:27;;;;;;;22.63;18.95;;;16.30;56.90;;;;;;5059150;28;20049;-66
2023/04/10 11:46:53;;;;;;;24.48;19.48;;;16.30;57.70;;;;;;5058706;28;20029;-66
2023/04/10 11:49:24;;;;;;;22.20;18.63;;;16.30;57.50;;;;;;5059134;28;20036;-66
2023/04/10 11:51:50;;;;;;;21.05;17.85;;;16.20;57.10;;;;;;5058299;28;20543;-65
2023/04/10 11:54:18;;;;;;;21.40;17.00;;;16.30;56.90;;;;;;5058920;28;20108;-66
2023/04/10 11:56:53;;;;;;;18.42;15.75;;;16.30;55.70;;;;;;5059071;28;20033;-66
2023/04/10 11:59:19;;;;;;;18.63;15.45;;;16.30;54.50;;;;;;5058721;28;20017;-65
2023/04/10 12:01:46;;;;;;;20.58;17.35;;;16.40;55.20;;;;;;5058770;28;20031;-65
2023/04/10 12:04:20;;;;;;;19.30;16.83;;;16.40;55.30;;;;;;5058513;28;20465;-65
2023/04/10 12:06:47;;;;;;;20.30;16.85;;;16.50;55.40;;;;;;5058650;28;20028;-66
2023/04/10 12:09:16;;;;;;;20.58;16.90;;;16.40;54.20;;;;;;5058847;28;20063;-65
2023/04/10 12:12:08;;;;;;;20.88;16.88;;;16.40;53.30;;;;;;5058731;28;20033;-65
2023/04/10 12:14:38;;;;;;;21.23;18.08;;;16.40;54.90;;;;;;5056561;28;20481;-66
2023/04/10 12:17:07;;;;;;;25.48;19.85;;;16.40;55.30;;;;;;5058138;28;20044;-65
2023/04/10 12:19:37;;;;;;;25.40;19.17;;;16.40;55.40;;;;;;5058316;28;20044;-65
2023/04/10 12:22:03;;;;;;;22.42;18.45;;;16.20;56.20;;;;;;5057991;28;20067;-65
2023/04/10 12:24:49;;;;;;;23.58;18.98;;;16.20;56.00;;;;;;5058737;28;20021;-66
2023/04/10 12:27:28;;;;;;;21.02;18.67;;;16.10;56.40;;;;;;5054072;28;20382;-66
2023/04/10 12:29:57;;;;;;;22.35;18.17;;;16.10;56.50;;;;;;5055089;28;20040;-67
2023/04/10 12:32:24;;;;;;;22.65;18.75;;;16.00;55.70;;;;;;5055457;28;20029;-66
2023/04/10 12:34:57;;;;;;;25.70;17.80;;;15.90;55.70;;;;;;5054864;28;20111;-67
2023/04/10 12:37:24;;;;;;;24.45;19.73;;;15.90;56.40;;;;;;5055345;28;20135;-66
2023/04/10 12:39:50;;;;;;;23.20;18.13;;;15.80;57.00;;;;;;5054798;28;20029;-67